Victory — E5U2349 — position and weather

sailwx.info

Track history (hours):
 
Tides and Currents Weather Stations Pressure Air Temp Water Temp Dewpoint Dewpoint Depression Visibility Wind Speed Wind Dir Waves Ship Positions

Victory

Last reported at 2014-Aug-14 12:33 UTC. Time now 2014-Aug-22 09:51 UTC.
Position N 40°55' E 009°31'.

Length 51 m; draft 3 m.

Type: Pleasure craft. MMSI: 518399000.

Date/timePositionNaut miles runAvg speedWind from/ knotsBaromVisibWave heightAir tempDewpointWater temp
2014-Aug-14 12:33N 40°55' E 009°31'0 0.0
2014-Aug-14 11:33N 40°55' E 009°31'0 0.0
2014-Aug-14 08:27N 40°55' E 009°31'0 0.0
2014-Aug-14 07:27N 40°55' E 009°31'0 0.0
2014-Aug-14 06:33N 40°55' E 009°31'0 0.0
2014-Aug-14 04:09N 40°55' E 009°31'0 0.0
2014-Aug-14 03:33N 40°55' E 009°31'0 0.0
2014-Aug-14 02:33N 40°55' E 009°31'0 0.0
2014-Aug-13 23:33N 40°55' E 009°31'0 0.0
2014-Aug-13 22:33N 40°55' E 009°31'0 0.0
2014-Aug-13 19:27N 40°55' E 009°31'0 0.0
2014-Aug-13 18:33N 40°55' E 009°31'0 0.0
2014-Aug-13 17:33N 40°55' E 009°31'0 0.0
2014-Aug-13 16:33N 40°55' E 009°31'0 0.0
2014-Aug-13 15:33N 40°55' E 009°31'0 0.0
2014-Aug-13 14:33N 40°55' E 009°31'2 1.5
2014-Aug-13 13:33N 40°55' E 009°33'  
2014-Aug-09 10:28N 41°51' E 009°33'1313.6
2014-Aug-09 09:32N 42°01' E 009°43'5313.3
2014-Aug-09 05:33N 42°43' E 010°27'6 0.3
2014-Aug-08 11:33N 42°49' E 010°27'6 0.3
2014-Aug-07 16:14N 42°50' E 010°19'3 1.4
2014-Aug-07 14:11N 42°48' E 010°16'0 0.0
2014-Aug-07 13:24N 42°48' E 010°16'21 9.1
2014-Aug-07 11:07N 43°08' E 010°07'814.1
2014-Aug-07 10:33N 43°16' E 010°04'1414.1
2014-Aug-07 09:33N 43°29' E 009°57'1413.7
2014-Aug-07 08:33N 43°41' E 009°49'1413.5
2014-Aug-07 07:33N 43°53' E 009°41'1413.5
2014-Aug-07 06:33N 44°05' E 009°31'1413.9
2014-Aug-07 05:33N 44°16' E 009°18'5 0.3
2014-Aug-06 10:33N 44°19' E 009°14'1312.6
2014-Aug-06 09:31N 44°20' E 008°56'6 0.4
2014-Aug-05 19:23N 44°25' E 008°50'0 0.0
2014-Aug-05 18:32N 44°25' E 008°50'0 0.0
2014-Aug-05 14:20N 44°25' E 008°50'0 0.0
2014-Aug-05 03:08N 44°25' E 008°50'0 0.0
2014-Aug-05 01:26N 44°25' E 008°50'0 0.0
2014-Aug-04 19:26N 44°25' E 008°50'  
Track history (hours):
 
Tides and Currents Weather Stations Pressure Air Temp Water Temp Dewpoint Dewpoint Depression Visibility Wind Speed Wind Dir Waves Ship Positions

Victory

Last reported at 2014-Aug-14 12:33 UTC. Time now 2014-Aug-22 09:51 UTC.
Position N 40°55' E 009°31'.

Length 51 m; draft 3 m.

Type: Pleasure craft. MMSI: 518399000.

Date/timePositionNaut miles runAvg speedWind from/ knotsBaromVisibWave heightAir tempDewpointWater temp
2014-Aug-14 12:33N 40°55' E 009°31'0 0.0
2014-Aug-14 11:33N 40°55' E 009°31'0 0.0
2014-Aug-14 08:27N 40°55' E 009°31'0 0.0
2014-Aug-14 07:27N 40°55' E 009°31'0 0.0
2014-Aug-14 06:33N 40°55' E 009°31'0 0.0
2014-Aug-14 04:09N 40°55' E 009°31'0 0.0
2014-Aug-14 03:33N 40°55' E 009°31'0 0.0
2014-Aug-14 02:33N 40°55' E 009°31'0 0.0
2014-Aug-13 23:33N 40°55' E 009°31'0 0.0
2014-Aug-13 22:33N 40°55' E 009°31'0 0.0
2014-Aug-13 19:27N 40°55' E 009°31'0 0.0
2014-Aug-13 18:33N 40°55' E 009°31'0 0.0
2014-Aug-13 17:33N 40°55' E 009°31'0 0.0
2014-Aug-13 16:33N 40°55' E 009°31'0 0.0
2014-Aug-13 15:33N 40°55' E 009°31'0 0.0
2014-Aug-13 14:33N 40°55' E 009°31'2 1.5
2014-Aug-13 13:33N 40°55' E 009°33'  
2014-Aug-09 10:28N 41°51' E 009°33'1313.6
2014-Aug-09 09:32N 42°01' E 009°43'5313.3
2014-Aug-09 05:33N 42°43' E 010°27'6 0.3
2014-Aug-08 11:33N 42°49' E 010°27'6 0.3
2014-Aug-07 16:14N 42°50' E 010°19'3 1.4
2014-Aug-07 14:11N 42°48' E 010°16'0 0.0
2014-Aug-07 13:24N 42°48' E 010°16'21 9.1
2014-Aug-07 11:07N 43°08' E 010°07'814.1
2014-Aug-07 10:33N 43°16' E 010°04'1414.1
2014-Aug-07 09:33N 43°29' E 009°57'1413.7
2014-Aug-07 08:33N 43°41' E 009°49'1413.5
2014-Aug-07 07:33N 43°53' E 009°41'1413.5
2014-Aug-07 06:33N 44°05' E 009°31'1413.9
2014-Aug-07 05:33N 44°16' E 009°18'5 0.3
2014-Aug-06 10:33N 44°19' E 009°14'1312.6
2014-Aug-06 09:31N 44°20' E 008°56'6 0.4
2014-Aug-05 19:23N 44°25' E 008°50'0 0.0
2014-Aug-05 18:32N 44°25' E 008°50'0 0.0
2014-Aug-05 14:20N 44°25' E 008°50'0 0.0
2014-Aug-05 03:08N 44°25' E 008°50'0 0.0
2014-Aug-05 01:26N 44°25' E 008°50'0 0.0
2014-Aug-04 19:26N 44°25' E 008°50'  

Dump ship's entire track history